Time;durP1;ratioP1;P1;durP2;ratioP2;P2;SDS_P1;SDS_P2;PMS_P1;PMS_P2;Temp;Humidity;BMP_temperature;BMP_pressure;BME280_temperature;BME280_humidity;BME280_pressure;Samples;Min_cycle;Max_cycle;Signal;HPM_P1;HPM_P2
2021/10/12 00:01:21;;;;;;;;;;;;;;;20.68;61.87;102648.53;7285560;19;154165;-53
2021/10/12 00:03:48;;;;;;;;;;;;;;;20.67;61.65;102641.22;7279528;19;153254;-53
2021/10/12 00:06:16;;;;;;;;;;;;;;;20.65;62.02;102639.81;7279170;19;153877;-53
2021/10/12 00:08:47;;;;;;;;;;;;;;;20.65;61.68;102637.00;7281321;19;152017;-53
2021/10/12 00:11:14;;;;;;;;;;;;;;;20.63;61.64;102628.84;7280527;19;152814;-53
2021/10/12 00:13:41;;;;;;;;;;;;;;;20.61;61.66;102633.91;7277158;19;152616;-53
2021/10/12 00:16:08;;;;;;;;;;;;;;;20.60;62.15;102617.31;7278646;19;151916;-53
2021/10/12 00:18:35;;;;;;;;;;;;;;;20.59;62.20;102616.44;7279003;19;151804;-53
2021/10/12 00:21:02;;;;;;;;;;;;;;;20.59;62.26;102619.25;7287731;19;153791;-53
2021/10/12 00:23:29;;;;;;;;;;;;;;;20.60;62.34;102614.50;7279622;19;152651;-53
2021/10/12 00:25:56;;;;;;;;;;;;;;;20.57;62.67;102613.09;7280024;19;154316;-53
2021/10/12 00:28:24;;;;;;;;;;;;;;;20.56;62.78;102614.19;7280160;19;151949;-53
2021/10/12 00:30:51;;;;;;;;;;;;;;;20.56;62.75;102608.56;7281131;19;152791;-53
2021/10/12 00:33:18;;;;;;;;;;;;;;;20.56;62.50;102602.09;7279534;19;153211;-53
2021/10/12 00:35:45;;;;;;;;;;;;;;;20.54;63.02;102610.78;7280802;19;151761;-53
2021/10/12 00:38:12;;;;;;;;;;;;;;;20.53;63.28;102609.13;7275860;19;153380;-53
2021/10/12 00:40:39;;;;;;;;;;;;;;;20.52;63.08;102601.81;7280382;19;153392;-53
2021/10/12 00:43:06;;;;;;;;;;;;;;;20.51;63.21;102593.63;7287387;19;151954;-53
2021/10/12 00:45:35;;;;;;;;;;;;;;;20.57;63.27;102592.56;7278350;19;153878;-57
2021/10/12 00:48:03;;;;;;;;;;;;;;;20.58;63.01;102597.09;7272517;19;152224;-53
2021/10/12 00:50:33;;;;;;;;;;;;;;;20.57;63.04;102592.56;7279293;19;153436;-53
2021/10/12 00:53:00;;;;;;;;;;;;;;;20.53;62.75;102594.22;7277415;19;153184;-53
2021/10/12 00:55:27;;;;;;;;;;;;;;;20.51;63.10;102602.06;7277262;19;152260;-53
2021/10/12 00:57:54;;;;;;;;;;;;;;;20.53;63.23;102597.88;7279062;19;152801;-53
2021/10/12 01:00:21;;;;;;;;;;;;;;;20.50;62.96;102580.72;7276760;19;154581;-53
2021/10/12 01:02:48;;;;;;;;;;;;;;;20.49;62.92;102593.06;7277450;19;151790;-53
2021/10/12 01:05:15;;;;;;;;;;;;;;;20.47;63.29;102590.53;7283799;19;152803;-53
2021/10/12 01:07:42;;;;;;;;;;;;;;;20.50;63.37;102583.50;7275847;19;152021;-53
2021/10/12 01:10:11;;;;;;;;;;;;;;;20.47;63.28;102587.72;7279680;19;153259;-53
2021/10/12 01:12:38;;;;;;;;;;;;;;;20.47;63.06;102572.81;7281994;19;153116;-53
2021/10/12 01:15:06;;;;;;;;;;;;;;;20.45;63.08;102572.25;7288072;19;152058;-53
2021/10/12 01:17:34;;;;;;;;;;;;;;;20.47;63.14;102565.25;7282846;19;153048;-53
2021/10/12 01:20:03;;;;;;;;;;;;;;;20.44;63.22;102559.34;7284345;19;153230;-53
2021/10/12 01:22:30;;;;;;;;;;;;;;;20.44;63.44;102560.19;7285292;19;152220;-53
2021/10/12 01:24:56;;;;;;;;;;;;;;;20.40;63.69;102562.66;7285042;19;153254;-53
2021/10/12 01:27:23;;;;;;;;;;;;;;;20.39;63.64;102562.94;7288464;19;154149;-53
2021/10/12 01:29:51;;;;;;;;;;;;;;;20.37;63.56;102568.81;7286221;19;153062;-53
2021/10/12 01:32:18;;;;;;;;;;;;;;;20.38;63.46;102570.53;7282894;19;153346;-53
2021/10/12 01:34:45;;;;;;;;;;;;;;;20.35;63.70;102568.22;7283757;19;151941;-53
2021/10/12 01:37:11;;;;;;;;;;;;;;;20.35;63.31;102576.66;7281459;19;152899;-53
2021/10/12 01:39:38;;;;;;;;;;;;;;;20.34;63.29;102569.38;7279151;19;153420;-53
2021/10/12 01:42:05;;;;;;;;;;;;;;;20.33;63.74;102564.00;7283052;19;151907;-53
2021/10/12 01:44:33;;;;;;;;;;;;;;;20.32;63.67;102549.13;7285361;19;153470;-53
2021/10/12 01:46:59;;;;;;;;;;;;;;;20.31;63.64;102549.38;7281353;19;153909;-53
2021/10/12 01:49:26;;;;;;;;;;;;;;;20.30;63.57;102545.75;7292426;19;151612;-53
2021/10/12 01:51:53;;;;;;;;;;;;;;;20.30;63.28;102542.09;7286365;19;154534;-53
2021/10/12 01:54:21;;;;;;;;;;;;;;;20.30;63.54;102539.28;7287594;19;151794;-53
2021/10/12 01:56:49;;;;;;;;;;;;;;;20.33;63.59;102538.75;7287693;19;152758;-53
2021/10/12 01:59:16;;;;;;;;;;;;;;;20.37;63.35;102532.31;7284548;19;153737;-58
2021/10/12 02:01:43;;;;;;;;;;;;;;;20.37;64.04;102551.13;7285892;19;151851;-53
2021/10/12 02:04:10;;;;;;;;;;;;;;;20.37;64.20;102548.31;7285198;19;153398;-52
2021/10/12 02:06:37;;;;;;;;;;;;;;;20.36;64.44;102541.00;7287545;19;153574;-52
2021/10/12 02:09:04;;;;;;;;;;;;;;;20.32;64.37;102531.44;7289054;19;152141;-52
2021/10/12 02:11:31;;;;;;;;;;;;;;;20.28;64.66;102527.44;7293563;19;153197;-53
2021/10/12 02:13:58;;;;;;;;;;;;;;;20.25;65.03;102525.19;7287600;19;152315;-54
2021/10/12 02:16:25;;;;;;;;;;;;;;;20.25;64.73;102528.00;7288288;19;153463;-53
2021/10/12 02:18:52;;;;;;;;;;;;;;;20.22;65.34;102520.09;7287323;19;153980;-53
2021/10/12 02:21:18;;;;;;;;;;;;;;;20.21;65.13;102513.66;7286600;19;151871;-53
2021/10/12 02:23:45;;;;;;;;;;;;;;;20.26;64.88;102515.66;7288390;19;152805;-53
2021/10/12 02:26:13;;;;;;;;;;;;;;;20.21;65.34;102510.00;7287906;19;153929;-53
2021/10/12 02:28:39;;;;;;;;;;;;;;;20.19;65.69;102501.84;7285520;19;151484;-53
2021/10/12 02:31:06;;;;;;;;;;;;;;;20.20;65.21;102511.09;7292794;19;151963;-53
2021/10/12 02:33:33;;;;;;;;;;;;;;;20.21;65.57;102513.66;7288666;19;152216;-52
2021/10/12 02:36:00;;;;;;;;;;;;;;;20.20;65.29;102502.69;7285656;19;152617;-52
2021/10/12 02:38:27;;;;;;;;;;;;;;;20.19;65.33;102512.22;7286268;19;153434;-52
2021/10/12 02:40:53;;;;;;;;;;;;;;;20.19;65.30;102515.03;7283434;19;151708;-52
2021/10/12 02:43:20;;;;;;;;;;;;;;;20.17;65.60;102495.63;7287420;19;152637;-53
2021/10/12 02:45:47;;;;;;;;;;;;;;;20.15;65.29;102494.22;7284962;19;154579;-52
2021/10/12 02:48:14;;;;;;;;;;;;;;;20.16;65.55;102502.38;7281705;19;151591;-53
2021/10/12 02:50:43;;;;;;;;;;;;;;;20.15;65.91;102491.41;7286146;19;151964;-52
2021/10/12 02:53:10;;;;;;;;;;;;;;;20.14;65.68;102498.97;7292473;19;153559;-53
2021/10/12 02:55:37;;;;;;;;;;;;;;;20.14;65.81;102489.72;7284497;19;152676;-53
2021/10/12 02:58:05;;;;;;;;;;;;;;;20.14;66.10;102496.19;7283844;19;153787;-53
2021/10/12 03:00:32;;;;;;;;;;;;;;;20.15;66.07;102502.63;7286371;19;152138;-53
2021/10/12 03:02:59;;;;;;;;;;;;;;;20.13;65.87;102502.91;7282287;19;152015;-52
2021/10/12 03:05:26;;;;;;;;;;;;;;;20.13;65.71;102496.44;7281956;19;153851;-52
2021/10/12 03:07:53;;;;;;;;;;;;;;;20.12;65.79;102501.22;7282840;19;151702;-52
2021/10/12 03:10:19;;;;;;;;;;;;;;;20.11;65.99;102496.72;7284139;19;152456;-53
2021/10/12 03:12:46;;;;;;;;;;;;;;;20.12;66.46;102489.16;7283490;19;153232;-53
2021/10/12 03:15:13;;;;;;;;;;;;;;;20.11;66.25;102488.31;7290253;19;152179;-52
2021/10/12 03:17:40;;;;;;;;;;;;;;;20.13;66.48;102488.88;7281678;19;153429;-52
2021/10/12 03:20:07;;;;;;;;;;;;;;;20.11;66.45;102473.44;7282819;19;152060;-53
2021/10/12 03:22:37;;;;;;;;;;;;;;;20.09;66.58;102467.22;7284194;19;153510;-52
2021/10/12 03:25:04;;;;;;;;;;;;;;;20.11;66.30;102474.28;7283272;19;153082;-53
2021/10/12 03:27:30;;;;;;;;;;;;;;;20.12;66.14;102464.75;7283308;19;152860;-53
2021/10/12 03:29:57;;;;;;;;;;;;;;;20.11;66.94;102465.00;7283640;19;153166;-53
2021/10/12 03:32:26;;;;;;;;;;;;;;;20.11;67.13;102459.41;7281769;19;153527;-53
2021/10/12 03:34:53;;;;;;;;;;;;;;;20.09;67.04;102459.66;7281697;19;151988;-53
2021/10/12 03:37:20;;;;;;;;;;;;;;;20.08;67.21;102455.16;7290025;19;152891;-53
2021/10/12 03:39:47;;;;;;;;;;;;;;;20.09;67.30;102462.47;7282985;19;152447;-53
2021/10/12 03:42:14;;;;;;;;;;;;;;;20.10;67.01;102455.75;7279217;19;152643;-53
2021/10/12 03:44:40;;;;;;;;;;;;;;;20.10;67.25;102455.75;7283156;19;153393;-53
2021/10/12 03:47:07;;;;;;;;;;;;;;;20.10;66.95;102450.13;7280391;19;152158;-52
2021/10/12 03:49:34;;;;;;;;;;;;;;;20.08;67.23;102448.72;7281541;19;152394;-53
2021/10/12 03:52:01;;;;;;;;;;;;;;;20.08;67.39;102445.91;7280993;19;152573;-53
2021/10/12 03:54:28;;;;;;;;;;;;;;;20.09;67.30;102450.38;7278987;19;151919;-53
2021/10/12 03:56:55;;;;;;;;;;;;;;;20.07;67.34;102442.25;7283806;19;153540;-53
2021/10/12 03:59:21;;;;;;;;;;;;;;;20.08;67.18;102441.13;7288405;19;155122;-53
2021/10/12 04:01:48;;;;;;;;;;;;;;;20.06;67.28;102440.56;7126055;19;3035600;-53
2021/10/12 04:04:15;;;;;;;;;;;;;;;20.06;67.27;102434.09;7284881;19;154008;-53
2021/10/12 04:06:42;;;;;;;;;;;;;;;20.06;67.44;102431.28;7285876;19;151952;-53
2021/10/12 04:09:08;;;;;;;;;;;;;;;20.04;67.89;102430.69;7283659;19;153333;-53
2021/10/12 04:11:36;;;;;;;;;;;;;;;20.04;67.41;102431.56;7283804;19;153943;-51
2021/10/12 04:14:02;;;;;;;;;;;;;;;20.06;67.53;102428.50;7285486;19;151594;-51
2021/10/12 04:16:30;;;;;;;;;;;;;;;20.06;67.76;102422.88;7284925;19;152053;-51
2021/10/12 04:18:57;;;;;;;;;;;;;;;20.04;67.87;102423.13;7282145;19;153887;-51
2021/10/12 04:21:24;;;;;;;;;;;;;;;20.04;67.83;102436.31;7293008;19;151807;-51
2021/10/12 04:23:51;;;;;;;;;;;;;;;20.04;67.80;102425.09;7283377;19;153919;-51
2021/10/12 04:26:19;;;;;;;;;;;;;;;20.04;67.91;102419.47;7283621;19;151850;-51
2021/10/12 04:28:46;;;;;;;;;;;;;;;20.03;67.87;102417.81;7281096;19;152853;-51
2021/10/12 04:31:12;;;;;;;;;;;;;;;20.03;68.08;102412.19;7283832;19;153966;-51
2021/10/12 04:33:39;;;;;;;;;;;;;;;20.03;68.19;102420.63;7283654;19;152129;-52
2021/10/12 04:36:06;;;;;;;;;;;;;;;20.02;68.14;102419.78;7285831;19;153300;-53
2021/10/12 04:38:33;;;;;;;;;;;;;;;20.04;67.97;102422.28;7284221;19;153234;-51
2021/10/12 04:41:00;;;;;;;;;;;;;;;20.02;68.53;102422.56;7286511;19;152137;-53
2021/10/12 04:43:27;;;;;;;;;;;;;;;20.03;68.16;102417.81;7278360;19;153277;-53
2021/10/12 04:45:54;;;;;;;;;;;;;;;20.01;68.68;102414.41;7276513;19;151616;-53
2021/10/12 04:48:20;;;;;;;;;;;;;;;19.99;68.39;102401.50;7279940;19;152542;-53
2021/10/12 04:50:47;;;;;;;;;;;;;;;20.06;68.87;102398.47;7281012;19;152717;-60
2021/10/12 04:53:14;;;;;;;;;;;;;;;20.17;68.86;102410.63;7281675;19;151675;-53
2021/10/12 04:55:41;;;;;;;;;;;;;;;20.20;68.67;102396.03;7282643;19;152624;-53
2021/10/12 04:58:09;;;;;;;;;;;;;;;20.27;68.89;102391.03;7282062;19;154230;-53
2021/10/12 05:00:36;;;;;;;;;;;;;;;20.32;69.05;102396.69;7280533;19;152090;-53
2021/10/12 05:03:03;;;;;;;;;;;;;;;20.35;69.44;102391.38;7285145;19;152450;-53
2021/10/12 05:05:30;;;;;;;;;;;;;;;20.41;69.56;102407.16;7280105;19;152355;-53
2021/10/12 05:07:57;;;;;;;;;;;;;;;20.45;69.28;102398.16;7281624;19;152677;-53
2021/10/12 05:10:24;;;;;;;;;;;;;;;20.50;69.91;102389.78;7281690;19;153343;-53
2021/10/12 05:12:51;;;;;;;;;;;;;;;20.56;70.47;102389.53;7281882;19;151965;-53
2021/10/12 05:15:22;;;;;;;;;;;;;;;20.62;70.57;102388.47;7283418;19;152996;-52
2021/10/12 05:17:49;;;;;;;;;;;;;;;20.69;70.46;102389.03;7277694;19;153954;-52
2021/10/12 05:20:16;;;;;;;;;;;;;;;20.75;70.21;102379.53;7279287;19;151565;-52
2021/10/12 05:22:43;;;;;;;;;;;;;;;20.82;70.08;102382.06;7280454;19;152698;-52
2021/10/12 05:25:10;;;;;;;;;;;;;;;20.88;70.03;102375.34;7286663;19;154140;-53
2021/10/12 05:27:37;;;;;;;;;;;;;;;20.96;69.34;102366.38;7281869;19;152790;-53
2021/10/12 05:30:05;;;;;;;;;;;;;;;21.04;69.48;102367.78;7276791;19;154279;-53
2021/10/12 05:32:34;;;;;;;;;;;;;;;21.09;68.53;102353.75;7279994;19;151583;-53
2021/10/12 05:35:00;;;;;;;;;;;;;;;21.17;69.11;102361.66;7280247;19;152177;-53
2021/10/12 05:37:27;;;;;;;;;;;;;;;21.23;69.05;102360.56;7279739;19;153986;-53
2021/10/12 05:39:54;;;;;;;;;;;;;;;21.29;68.59;102365.91;7279761;19;151841;-53
2021/10/12 05:42:21;;;;;;;;;;;;;;;21.37;68.01;102364.50;7276593;19;151822;-53
2021/10/12 05:44:48;;;;;;;;;;;;;;;21.44;67.90;102367.06;7274757;19;154007;-53
2021/10/12 05:47:14;;;;;;;;;;;;;;;21.49;67.47;102370.69;7289176;19;151853;-53
2021/10/12 05:49:42;;;;;;;;;;;;;;;21.54;67.40;102376.31;7277942;19;156533;-53
2021/10/12 05:52:12;;;;;;;;;;;;;;;21.61;67.24;102376.06;7280920;19;152396;-53
2021/10/12 05:54:45;;;;;;;;;;;;;;;21.67;66.96;102367.31;7281684;19;153236;-53
2021/10/12 05:57:20;;;;;;;;;;;;;;;21.73;66.50;102362.53;7283786;19;153056;-53
2021/10/12 05:59:46;;;;;;;;;;;;;;;21.79;66.37;102352.13;7287577;19;152161;-53
2021/10/12 06:02:13;;;;;;;;;;;;;;;21.84;65.88;102355.78;7284586;19;152023;-53
2021/10/12 06:04:40;;;;;;;;;;;;;;;21.91;65.84;102361.13;7286374;19;154026;-53
2021/10/12 06:07:07;;;;;;;;;;;;;;;21.96;65.82;102355.50;7286916;19;152271;-53
2021/10/12 06:09:34;;;;;;;;;;;;;;;22.02;65.68;102351.56;7292718;19;152826;-53
2021/10/12 06:12:00;;;;;;;;;;;;;;;22.06;65.87;102344.25;7288829;19;151933;-54
2021/10/12 06:14:27;;;;;;;;;;;;;;;22.13;65.07;102341.97;7287727;19;153762;-53
2021/10/12 06:16:54;;;;;;;;;;;;;;;22.16;64.93;102328.19;7286738;19;153199;-54
2021/10/12 06:19:21;;;;;;;;;;;;;;;22.23;65.46;102327.03;7282848;19;152086;-53
2021/10/12 06:21:49;;;;;;;;;;;;;;;22.26;65.33;102329.28;7285501;19;153507;-53
2021/10/12 06:24:16;;;;;;;;;;;;;;;22.29;64.76;102334.31;7286413;19;153445;-53
2021/10/12 06:26:42;;;;;;;;;;;;;;;22.33;64.55;102325.03;7287066;19;152036;-53
2021/10/12 06:29:09;;;;;;;;;;;;;;;22.36;64.61;102327.25;7284742;19;152825;-53
2021/10/12 06:31:36;;;;;;;;;;;;;;;22.39;64.56;102323.03;7293605;19;151765;-53
2021/10/12 06:34:03;;;;;;;;;;;;;;;22.41;64.49;102318.78;7286899;19;153396;-53
2021/10/12 06:36:31;;;;;;;;;;;;;;;22.43;63.99;102319.34;7286231;19;153372;-53
2021/10/12 06:38:58;;;;;;;;;;;;;;;22.44;64.07;102321.00;7282798;19;151652;-52
2021/10/12 06:41:24;;;;;;;;;;;;;;;22.46;64.44;102323.56;7282847;19;154651;-52
2021/10/12 06:44:11;;;;;;;;;;;;;;;22.47;63.84;102317.66;7280395;19;154646;-53
2021/10/12 06:46:38;;;;;;;;;;;;;;;22.49;64.28;102325.78;7286230;19;151797;-50
2021/10/12 06:49:05;;;;;;;;;;;;;;;22.49;64.52;102328.59;7284628;19;153122;-52
2021/10/12 06:51:32;;;;;;;;;;;;;;;22.49;64.89;102328.59;7293144;19;153408;-52
2021/10/12 06:54:13;;;;;;;;;;;;;;;22.49;64.50;102320.16;7286747;19;153009;-52
2021/10/12 06:56:40;;;;;;;;;;;;;;;22.50;64.50;102324.66;7283127;19;153336;-53
2021/10/12 06:59:08;;;;;;;;;;;;;;;22.50;64.53;102324.66;7284973;19;151679;-53
2021/10/12 07:01:35;;;;;;;;;;;;;;;22.52;64.21;102325.22;7283537;19;154316;-53
2021/10/12 07:04:02;;;;;;;;;;;;;;;22.53;63.55;102327.72;7282697;19;155649;-53
2021/10/12 07:06:29;;;;;;;;;;;;;;;22.52;63.63;102334.53;7286335;19;151745;-52
2021/10/12 07:08:56;;;;;;;;;;;;;;;22.49;63.57;102322.97;7280701;19;153421;-53
2021/10/12 07:11:23;;;;;;;;;;;;;;;22.47;63.90;102328.91;7285059;19;153367;-53
2021/10/12 07:13:50;;;;;;;;;;;;;;;22.46;63.63;102334.81;7292734;19;151574;-53
2021/10/12 07:16:20;;;;;;;;;;;;;;;22.46;63.64;102334.81;7283563;19;154317;-53
2021/10/12 07:18:48;;;;;;;;;;;;;;;22.44;63.98;102335.09;7284296;19;152165;-56
2021/10/12 07:21:15;;;;;;;;;;;;;;;22.42;63.87;102326.13;7283682;19;152887;-53
2021/10/12 07:23:43;;;;;;;;;;;;;;;22.41;63.41;102320.75;7284881;19;154724;-53
2021/10/12 07:26:10;;;;;;;;;;;;;;;22.41;63.80;102329.19;7283693;19;151740;-53
2021/10/12 07:28:36;;;;;;;;;;;;;;;22.38;62.90;102329.78;7285939;19;152660;-53
2021/10/12 07:31:04;;;;;;;;;;;;;;;22.37;63.75;102328.94;7284515;19;152240;-53
2021/10/12 07:33:31;;;;;;;;;;;;;;;22.37;63.85;102334.56;7283040;19;151809;-53
2021/10/12 07:35:58;;;;;;;;;;;;;;;22.37;63.82;102339.38;7288211;19;155282;-53
2021/10/12 07:38:25;;;;;;;;;;;;;;;22.36;63.77;102341.34;7285153;19;151783;-53
2021/10/12 07:40:52;;;;;;;;;;;;;;;22.35;63.60;102339.63;7282231;19;153945;-53
2021/10/12 07:43:19;;;;;;;;;;;;;;;22.32;63.41;102331.78;7281925;19;153222;-52
2021/10/12 07:45:48;;;;;;;;;;;;;;;22.33;63.30;102339.09;7279057;19;151874;-53
2021/10/12 07:48:16;;;;;;;;;;;;;;;22.32;63.41;102328.13;7282362;19;153905;-53
2021/10/12 07:50:43;;;;;;;;;;;;;;;22.32;63.50;102336.56;7282500;19;153413;-53
2021/10/12 07:53:11;;;;;;;;;;;;;;;22.31;63.50;102326.41;7284817;19;151574;-53
2021/10/12 07:55:43;;;;;;;;;;;;;;;22.29;63.42;102332.34;7281369;19;153107;-53
2021/10/12 07:58:09;;;;;;;;;;;;;;;22.29;63.66;102326.72;7289362;19;153813;-53
2021/10/12 08:00:37;;;;;;;;;;;;;;;22.28;63.69;102330.66;7283575;19;151997;-53
2021/10/12 08:03:05;;;;;;;;;;;;;;;22.22;63.83;102323.34;7280708;19;154150;-53
2021/10/12 08:05:32;;;;;;;;;;;;;;;22.21;63.57;102330.16;7284807;19;151865;-53
2021/10/12 08:07:59;;;;;;;;;;;;;;;22.17;63.77;102332.66;7282595;19;152941;-52
2021/10/12 08:10:29;;;;;;;;;;;;;;;22.16;63.79;102318.88;7282679;19;154032;-52
2021/10/12 08:12:58;;;;;;;;;;;;;;;22.11;64.28;102333.81;7284726;19;151702;-53
2021/10/12 08:15:25;;;;;;;;;;;;;;;22.07;64.29;102329.91;7284624;19;152748;-53
2021/10/12 08:17:52;;;;;;;;;;;;;;;22.04;64.38;102335.22;7281732;19;153867;-53
2021/10/12 08:20:19;;;;;;;;;;;;;;;22.01;64.19;102325.41;7289902;19;151650;-53
2021/10/12 08:22:46;;;;;;;;;;;;;;;22.00;64.17;102326.53;7282354;19;154346;-54
2021/10/12 08:25:13;;;;;;;;;;;;;;;21.98;64.61;102339.22;7285610;19;151809;-53
2021/10/12 08:27:41;;;;;;;;;;;;;;;21.97;64.68;102329.91;7283688;19;152651;-53
2021/10/12 08:30:09;;;;;;;;;;;;;;;21.97;65.19;102326.25;7279613;19;153604;-53
2021/10/12 08:32:39;;;;;;;;;;;;;;;21.97;65.61;102326.25;7282815;19;152130;-53
2021/10/12 08:35:08;;;;;;;;;;;;;;;22.00;63.68;102328.50;7281798;19;151767;-54
2021/10/12 08:37:35;;;;;;;;;;;;;;;21.96;62.30;102313.31;7280686;19;152072;-53
2021/10/12 08:40:04;;;;;;;;;;;;;;;21.88;62.35;102308.22;7288331;19;152381;-53
2021/10/12 08:42:33;;;;;;;;;;;;;;;21.81;62.41;102310.47;7279140;19;152888;-53
2021/10/12 08:45:03;;;;;;;;;;;;;;;21.80;61.27;102308.81;7281701;19;151940;-50
2021/10/12 08:47:30;;;;;;;;;;;;;;;21.74;62.06;102303.19;7278230;19;153742;-51
2021/10/12 08:49:58;;;;;;;;;;;;;;;21.69;61.14;102307.97;7278935;19;154551;-51
2021/10/12 08:52:25;;;;;;;;;;;;;;;21.65;60.98;102304.03;7283440;19;151573;-53
2021/10/12 08:54:54;;;;;;;;;;;;;;;21.62;61.19;102315.88;7279656;19;152341;-56
2021/10/12 08:57:23;;;;;;;;;;;;;;;21.58;60.43;102312.75;7278000;19;152167;-53
2021/10/12 08:59:52;;;;;;;;;;;;;;;21.55;60.69;102304.91;7280430;19;152102;-53
2021/10/12 09:02:19;;;;;;;;;;;;;;;21.51;60.81;102300.13;7287707;19;152593;-51
2021/10/12 09:04:46;;;;;;;;;;;;;;;21.47;60.71;102304.63;7280826;19;151752;-52
2021/10/12 09:07:14;;;;;;;;;;;;;;;21.45;60.33;102307.72;7281380;19;153076;-53
2021/10/12 09:09:41;;;;;;;;;;;;;;;21.44;60.49;102311.63;7279654;19;154968;-52
2021/10/12 09:12:08;;;;;;;;;;;;;;;21.39;60.03;102297.59;7281332;19;151920;-53
2021/10/12 09:14:49;;;;;;;;;;;;;;;21.35;60.13;102293.63;7282898;19;152494;-52
2021/10/12 09:17:27;;;;;;;;;;;;;;;21.35;60.32;102296.44;7275629;19;153254;-52
2021/10/12 09:19:54;;;;;;;;;;;;;;;21.29;60.33;102297.59;7278898;19;151907;-52
2021/10/12 09:22:20;;;;;;;;;;;;;;;21.29;60.17;102306.03;7279397;19;152052;-53
2021/10/12 09:24:48;;;;;;;;;;;;;;;21.26;60.20;102310.22;7285719;19;153474;-52
2021/10/12 09:27:16;;;;;;;;;;;;;;;21.10;57.06;102310.47;7279086;19;154817;-52
2021/10/12 09:32:16;;;;;;;;;;;;;;;20.61;53.68;102296.91;7282852;19;152110;-52
2021/10/12 09:34:45;;;;;;;;;;;;;;;20.62;53.42;102315.44;7284894;19;152878;-53
2021/10/12 09:37:16;;;;;;;;;;;;;;;20.71;55.38;102302.56;7281873;19;152603;-53
2021/10/12 09:39:45;;;;;;;;;;;;;;;20.79;56.40;102304.81;7286874;19;151552;-53
2021/10/12 09:42:13;;;;;;;;;;;;;;;20.84;56.63;102310.44;7284049;19;152419;-53
2021/10/12 09:44:49;;;;;;;;;;;;;;;20.93;58.19;102313.56;7282760;19;153328;-53
2021/10/12 09:47:16;;;;;;;;;;;;;;;20.91;59.00;102309.31;7291030;19;152296;-53
2021/10/12 09:49:44;;;;;;;;;;;;;;;20.89;59.03;102305.94;7281361;19;153341;-53
2021/10/12 09:52:17;;;;;;;;;;;;;;;20.94;59.26;102306.78;7282049;19;152196;-53
2021/10/12 09:54:48;;;;;;;;;;;;;;;20.92;59.04;102291.34;7285093;19;152820;-53
2021/10/12 09:57:16;;;;;;;;;;;;;;;20.89;59.40;102295.56;7281114;19;153293;-53
2021/10/12 09:59:44;;;;;;;;;;;;;;;20.91;59.46;102286.84;7285056;19;151823;-53
2021/10/12 10:02:14;;;;;;;;;;;;;;;21.01;59.61;102292.47;7278817;19;153227;-53
2021/10/12 10:04:41;;;;;;;;;;;;;;;21.09;59.46;102289.94;7281740;19;154274;-53
2021/10/12 10:07:15;;;;;;;;;;;;;;;21.12;59.27;102280.94;7280582;19;152037;-53
2021/10/12 10:09:43;;;;;;;;;;;;;;;21.12;58.24;102277.31;7290543;19;153867;-53
2021/10/12 10:12:10;;;;;;;;;;;;;;;21.08;57.65;102278.97;7282088;19;151852;-54
2021/10/12 10:14:37;;;;;;;;;;;;;;;21.06;57.10;102272.81;7284619;19;152327;-53
2021/10/12 10:17:04;;;;;;;;;;;;;;;21.04;56.67;102267.47;7284039;19;153634;-53
2021/10/12 10:19:33;;;;;;;;;;;;;;;21.04;56.75;102269.44;7285956;19;152267;-53
2021/10/12 10:22:01;;;;;;;;;;;;;;;21.03;56.17;102281.81;7285422;19;152750;-53
2021/10/12 10:24:38;;;;;;;;;;;;;;;21.01;55.75;102282.09;7281670;19;152553;-53
2021/10/12 10:27:05;;;;;;;;;;;;;;;21.02;56.05;102274.50;7282123;19;152368;-53
2021/10/12 10:29:37;;;;;;;;;;;;;;;21.01;55.81;102278.44;7282495;19;152624;-53
2021/10/12 10:32:17;;;;;;;;;;;;;;;21.07;56.23;102263.28;7288832;19;152253;-53
2021/10/12 10:34:45;;;;;;;;;;;;;;;21.11;56.27;102270.84;7286016;19;153913;-53
2021/10/12 10:37:14;;;;;;;;;;;;;;;21.13;56.83;102271.44;7282821;19;153284;-53
2021/10/12 10:39:49;;;;;;;;;;;;;;;21.16;56.67;102272.88;7284706;19;151784;-53
2021/10/12 10:42:19;;;;;;;;;;;;;;;21.18;57.11;102265.81;7281071;19;152835;-53
2021/10/12 10:44:48;;;;;;;;;;;;;;;21.19;56.99;102270.31;7282639;19;151894;-53
2021/10/12 10:47:18;;;;;;;;;;;;;;;21.23;57.23;102257.38;7278894;19;152258;-53
2021/10/12 10:50:05;;;;;;;;;;;;;;;21.29;55.83;102263.88;7280932;19;153167;-53
2021/10/12 10:52:35;;;;;;;;;;;;;;;21.26;56.89;102270.88;7287975;19;153729;-53
2021/10/12 10:55:04;;;;;;;;;;;;;;;21.33;57.06;102255.69;7283035;19;152700;-53
2021/10/12 10:57:32;;;;;;;;;;;;;;;21.39;57.29;102269.50;7281955;19;153442;-53
2021/10/12 11:00:02;;;;;;;;;;;;;;;21.54;57.20;102254.53;7282742;19;152140;-59
2021/10/12 11:02:42;;;;;;;;;;;;;;;21.58;58.71;102261.28;7278429;19;154268;-57
2021/10/12 11:05:09;;;;;;;;;;;;;;;21.60;57.90;102265.53;7280371;19;154370;-58
2021/10/12 11:07:36;;;;;;;;;;;;;;;21.63;57.67;102264.94;7282362;19;153910;-57
2021/10/12 11:10:03;;;;;;;;;;;;;;;21.67;57.57;102259.59;7280424;19;152668;-58
2021/10/12 11:12:31;;;;;;;;;;;;;;;21.71;57.75;102246.66;7281688;19;153374;-56
2021/10/12 11:15:02;;;;;;;;;;;;;;;21.75;58.00;102253.41;7288814;19;153179;-59
2021/10/12 11:17:30;;;;;;;;;;;;;;;21.81;57.59;102252.25;7279030;19;152537;-57
2021/10/12 11:19:58;;;;;;;;;;;;;;;21.85;57.43;102255.34;7274227;19;152969;-57
2021/10/12 11:22:26;;;;;;;;;;;;;;;21.89;57.82;102256.47;7279804;19;153842;-58
2021/10/12 11:24:53;;;;;;;;;;;;;;;21.92;57.67;102253.06;7282319;19;153936;-59
2021/10/12 11:27:37;;;;;;;;;;;;;;;21.97;57.59;102258.72;7284818;19;153072;-58
2021/10/12 11:30:05;;;;;;;;;;;;;;;22.00;57.48;102252.50;7286212;19;152817;-58
2021/10/12 11:32:32;;;;;;;;;;;;;;;22.03;57.72;102249.13;7279561;19;152588;-59
2021/10/12 11:35:02;;;;;;;;;;;;;;;22.05;57.94;102249.66;7284295;19;152520;-57
2021/10/12 11:37:29;;;;;;;;;;;;;;;22.06;57.50;102249.38;7290630;19;152512;-56
2021/10/12 11:39:59;;;;;;;;;;;;;;;22.08;57.64;102251.91;7286539;19;152205;-58
2021/10/12 11:42:26;;;;;;;;;;;;;;;22.10;57.90;102252.47;7283912;19;152651;-58
2021/10/12 11:44:53;;;;;;;;;;;;;;;22.12;57.48;102244.59;7283888;19;152979;-57
2021/10/12 11:47:19;;;;;;;;;;;;;;;22.11;57.70;102251.34;7281363;19;152281;-57
2021/10/12 11:49:47;;;;;;;;;;;;;;;22.11;57.98;102240.94;7286052;19;152736;-56
2021/10/12 11:52:14;;;;;;;;;;;;;;;22.12;57.91;102238.97;7281198;19;153716;-56
2021/10/12 11:54:41;;;;;;;;;;;;;;;22.12;57.65;102241.78;7283262;19;152208;-57
2021/10/12 11:57:11;;;;;;;;;;;;;;;22.14;57.90;102236.69;7284437;19;152873;-57
2021/10/12 11:59:46;;;;;;;;;;;;;;;22.15;58.00;102227.13;7291998;19;153353;-57
2021/10/12 12:02:13;;;;;;;;;;;;;;;22.16;57.81;102228.81;7278626;19;153648;-57
2021/10/12 12:04:40;;;;;;;;;;;;;;;22.16;57.73;102234.44;7280872;19;154401;-58
2021/10/12 12:07:08;;;;;;;;;;;;;;;22.17;57.68;102225.69;7284854;19;152143;-56
2021/10/12 12:09:38;;;;;;;;;;;;;;;22.18;57.84;102220.91;7284546;19;153498;-59
2021/10/12 12:12:06;;;;;;;;;;;;;;;22.17;57.67;102222.03;7279065;19;153601;-57
2021/10/12 12:14:33;;;;;;;;;;;;;;;22.16;58.13;102220.38;7283067;19;151757;-58
2021/10/12 12:17:03;;;;;;;;;;;;;;;22.15;57.61;102210.22;7284232;19;152654;-57
2021/10/12 12:19:30;;;;;;;;;;;;;;;22.15;57.61;102204.59;7281178;19;154391;-57
2021/10/12 12:21:57;;;;;;;;;;;;;;;22.14;57.89;102208.53;7286343;19;152047;-57
2021/10/12 12:24:24;;;;;;;;;;;;;;;22.12;57.90;102194.75;7279491;19;152781;-56
2021/10/12 12:26:54;;;;;;;;;;;;;;;22.15;57.38;102204.59;7282192;19;152187;-59
2021/10/12 12:29:21;;;;;;;;;;;;;;;22.13;57.64;102201.22;7285594;19;152744;-58
2021/10/12 12:31:50;;;;;;;;;;;;;;;22.14;57.28;102203.75;7280716;19;154110;-57